Time;durP1;ratioP1;P1;durP2;ratioP2;P2;SDS_P1;SDS_P2;PMS_P1;PMS_P2;Temp;Humidity;BMP_temperature;BMP_pressure;BME280_temperature;BME280_humidity;BME280_pressure;Samples;Min_cycle;Max_cycle;Signal;HPM_P1;HPM_P2
2022/04/05 00:01:57;;;;;;;5.78;1.20;;;7.50;99.90;;;;;;5119490;27;20043;-73
2022/04/05 00:04:23;;;;;;;5.13;1.10;;;7.50;99.90;;;;;;5119744;27;20489;-73
2022/04/05 00:06:49;;;;;;;7.13;1.50;;;7.50;99.90;;;;;;5118327;27;20066;-74
2022/04/05 00:09:16;;;;;;;9.50;1.58;;;7.50;99.90;;;;;;5119270;27;20058;-73
2022/04/05 00:11:42;;;;;;;5.95;1.00;;;7.40;99.90;;;;;;5136463;27;20510;-73
2022/04/05 00:14:15;;;;;;;8.43;1.30;;;7.40;99.90;;;;;;5105161;27;20096;-74
2022/04/05 00:16:40;;;;;;;5.05;1.30;;;7.40;99.90;;;;;;5103148;27;20454;-74
2022/04/05 00:19:07;;;;;;;4.93;1.10;;;7.30;99.90;;;;;;5102448;27;20054;-75
2022/04/05 00:21:34;;;;;;;8.05;1.30;;;7.30;99.90;;;;;;5119431;27;20035;-74
2022/04/05 00:24:05;;;;;;;6.97;1.15;;;7.30;99.90;;;;;;5104443;27;20099;-74
2022/04/05 00:26:31;;;;;;;6.03;1.08;;;7.30;99.90;;;;;;5136556;27;20046;-74
2022/04/05 00:28:57;;;;;;;4.65;0.95;;;7.30;99.90;;;;;;5102291;27;20553;-74
2022/04/05 00:31:23;;;;;;;5.03;1.42;;;7.30;99.90;;;;;;5106606;27;20046;-74
2022/04/05 00:33:48;;;;;;;6.18;1.20;;;7.30;99.90;;;;;;5106017;27;20046;-77
2022/04/05 00:36:14;;;;;;;6.55;1.05;;;7.30;99.90;;;;;;5106234;27;20393;-74
2022/04/05 00:38:40;;;;;;;5.90;1.10;;;7.30;99.90;;;;;;5106091;27;20486;-75
2022/04/05 00:41:06;;;;;;;6.10;1.35;;;7.30;99.90;;;;;;5106154;27;20057;-74
2022/04/05 00:43:33;;;;;;;4.82;1.00;;;7.20;99.90;;;;;;5105016;27;20047;-74
2022/04/05 00:45:58;;;;;;;7.22;1.10;;;7.30;99.90;;;;;;5106418;27;20057;-74
2022/04/05 00:48:48;;;;;;;8.15;1.30;;;7.20;99.90;;;;;;5089052;27;20055;-74
2022/04/05 00:51:15;;;;;;;7.07;0.80;;;7.30;99.90;;;;;;5123538;27;20046;-75
2022/04/05 00:53:43;;;;;;;6.65;1.10;;;7.20;99.90;;;;;;5105864;27;20038;-74
2022/04/05 00:56:08;;;;;;;4.38;1.23;;;7.20;99.90;;;;;;5089675;27;20146;-74
2022/04/05 00:58:34;;;;;;;5.07;1.63;;;7.20;99.90;;;;;;5122460;27;20143;-74
2022/04/05 01:01:00;;;;;;;5.32;1.05;;;7.20;99.90;;;;;;5105390;27;20047;-76
2022/04/05 01:03:26;;;;;;;4.38;0.98;;;7.30;99.90;;;;;;5088421;27;20099;-74
2022/04/05 01:05:52;;;;;;;6.88;1.30;;;7.20;99.90;;;;;;5105557;27;20133;-79
2022/04/05 01:08:18;;;;;;;6.18;1.20;;;7.20;99.90;;;;;;5105691;27;20125;-74
2022/04/05 01:10:44;;;;;;;6.30;1.25;;;7.20;99.90;;;;;;5104761;27;20053;-74
2022/04/05 01:13:09;;;;;;;6.95;1.42;;;7.20;99.90;;;;;;5122220;27;20042;-74
2022/04/05 01:15:35;;;;;;;5.95;1.25;;;7.20;99.90;;;;;;5122390;27;20077;-74
2022/04/05 01:18:01;;;;;;;6.97;1.33;;;7.20;99.90;;;;;;5088629;27;20043;-74
2022/04/05 01:20:27;;;;;;;5.63;1.15;;;7.20;99.90;;;;;;5105534;27;20047;-74
2022/04/05 01:22:54;;;;;;;5.15;1.30;;;7.10;99.90;;;;;;5139130;27;20543;-74
2022/04/05 01:25:20;;;;;;;8.57;1.33;;;7.20;99.90;;;;;;5105098;27;20053;-74
2022/04/05 01:27:46;;;;;;;7.53;1.50;;;7.20;99.90;;;;;;5140103;27;20047;-74
2022/04/05 01:30:11;;;;;;;5.82;1.30;;;7.20;99.90;;;;;;5104607;27;20055;-74
2022/04/05 01:32:37;;;;;;;7.15;1.20;;;7.20;99.90;;;;;;5139782;27;20049;-74
2022/04/05 01:35:07;;;;;;;4.60;1.25;;;7.10;99.90;;;;;;5121860;27;20039;-74
2022/04/05 01:37:33;;;;;;;6.05;1.48;;;7.10;99.90;;;;;;5106090;27;20051;-74
2022/04/05 01:39:59;;;;;;;7.13;1.27;;;7.10;99.90;;;;;;5104259;27;20062;-74
2022/04/05 01:42:25;;;;;;;6.43;1.33;;;7.10;99.90;;;;;;5103735;27;20111;-74
2022/04/05 01:44:51;;;;;;;6.35;1.23;;;7.10;99.90;;;;;;5087758;27;20078;-74
2022/04/05 01:47:17;;;;;;;5.22;1.20;;;7.20;99.90;;;;;;5104570;27;20050;-74
2022/04/05 01:49:44;;;;;;;5.80;1.30;;;7.20;99.90;;;;;;5104814;27;20435;-74
2022/04/05 01:52:10;;;;;;;10.30;1.50;;;7.20;99.90;;;;;;5104820;27;20043;-74
2022/04/05 01:54:36;;;;;;;5.78;1.13;;;7.20;99.90;;;;;;5104583;27;20047;-74
2022/04/05 01:57:03;;;;;;;7.75;1.38;;;7.10;99.90;;;;;;5088051;27;20051;-74
2022/04/05 01:59:30;;;;;;;6.70;1.40;;;7.20;99.90;;;;;;5088016;27;20047;-74
2022/04/05 02:01:55;;;;;;;8.95;1.40;;;7.20;99.90;;;;;;5120352;27;20047;-74
2022/04/05 02:04:21;;;;;;;7.72;1.20;;;7.20;99.90;;;;;;5087492;27;20266;-74
2022/04/05 02:06:48;;;;;;;5.63;1.30;;;7.20;99.90;;;;;;5120719;27;20547;-74
2022/04/05 02:09:15;;;;;;;9.35;1.83;;;7.20;99.90;;;;;;5121530;27;20051;-74
2022/04/05 02:11:43;;;;;;;8.20;1.50;;;7.20;99.90;;;;;;5104552;27;20049;-74
2022/04/05 02:14:09;;;;;;;7.07;1.20;;;7.20;99.90;;;;;;5138026;27;20043;-74
2022/04/05 02:16:35;;;;;;;7.05;1.38;;;7.20;99.90;;;;;;5087824;27;20044;-75
2022/04/05 02:19:01;;;;;;;5.25;1.33;;;7.20;99.90;;;;;;5087360;27;20122;-74
2022/04/05 02:21:26;;;;;;;12.27;1.80;;;7.20;99.90;;;;;;5120811;27;20046;-74
2022/04/05 02:23:52;;;;;;;9.23;1.60;;;7.20;99.90;;;;;;5103763;27;20129;-74
2022/04/05 02:26:18;;;;;;;5.95;1.30;;;7.20;99.90;;;;;;5121446;27;20047;-74
2022/04/05 02:28:43;;;;;;;9.32;2.10;;;7.20;99.90;;;;;;5103978;27;20039;-74
2022/04/05 02:31:09;;;;;;;5.53;1.40;;;7.20;99.90;;;;;;5120880;27;20046;-74
2022/04/05 02:33:35;;;;;;;9.82;1.88;;;7.20;99.90;;;;;;5103119;27;20082;-74
2022/04/05 02:36:03;;;;;;;10.63;1.77;;;7.20;99.90;;;;;;5120999;27;20129;-74
2022/04/05 02:38:32;;;;;;;4.10;1.50;;;7.20;99.90;;;;;;5138789;27;20041;-75
2022/04/05 02:40:57;;;;;;;6.43;1.75;;;7.20;99.90;;;;;;5137641;27;20042;-74
2022/04/05 02:43:24;;;;;;;7.60;2.00;;;7.20;99.90;;;;;;5103456;27;20042;-74
2022/04/05 02:45:49;;;;;;;10.35;2.20;;;7.20;99.90;;;;;;5087134;27;20049;-74
2022/04/05 02:48:16;;;;;;;6.18;1.67;;;7.20;99.90;;;;;;5103589;27;20042;-74
2022/04/05 02:50:42;;;;;;;10.18;2.15;;;7.20;99.90;;;;;;5103687;27;20451;-74
2022/04/05 02:53:08;;;;;;;8.18;2.30;;;7.20;99.90;;;;;;5086361;27;20082;-74
2022/04/05 02:55:34;;;;;;;6.47;2.03;;;7.20;99.90;;;;;;5120761;27;20157;-74
2022/04/05 02:58:00;;;;;;;8.40;2.08;;;7.20;99.90;;;;;;5120697;27;20078;-74
2022/04/05 03:00:27;;;;;;;14.77;2.40;;;7.20;99.90;;;;;;5120627;27;20069;-74
2022/04/05 03:02:53;;;;;;;9.10;2.42;;;7.20;99.90;;;;;;5120390;27;20039;-74
2022/04/05 03:05:21;;;;;;;13.48;2.13;;;7.20;99.90;;;;;;5103312;27;20077;-74
2022/04/05 03:07:47;;;;;;;8.65;2.33;;;7.20;99.90;;;;;;5103625;27;20511;-74
2022/04/05 03:10:13;;;;;;;14.80;2.58;;;7.20;99.90;;;;;;5120119;27;20097;-74
2022/04/05 03:12:39;;;;;;;11.52;2.22;;;7.20;99.90;;;;;;5121062;27;20051;-74
2022/04/05 03:15:08;;;;;;;16.08;2.40;;;7.20;99.90;;;;;;5120974;27;20042;-74
2022/04/05 03:17:34;;;;;;;11.07;2.33;;;7.20;99.90;;;;;;5119907;27;20056;-74
2022/04/05 03:20:03;;;;;;;14.13;2.53;;;7.20;99.90;;;;;;5155444;27;20125;-74
2022/04/05 03:22:29;;;;;;;13.32;2.53;;;7.20;99.90;;;;;;5120485;27;20039;-74
2022/04/05 03:24:58;;;;;;;10.23;2.38;;;7.20;99.90;;;;;;5138004;27;20054;-74
2022/04/05 03:27:24;;;;;;;12.45;2.45;;;7.20;99.90;;;;;;5120007;27;20552;-74
2022/04/05 03:29:49;;;;;;;10.70;2.30;;;7.20;99.90;;;;;;5136912;27;20050;-74
2022/04/05 03:32:15;;;;;;;8.57;2.22;;;7.20;99.90;;;;;;5103499;27;20042;-74
2022/04/05 03:34:41;;;;;;;10.02;2.55;;;7.20;99.90;;;;;;5085895;27;20078;-74
2022/04/05 03:37:07;;;;;;;11.70;2.47;;;7.30;99.90;;;;;;5086295;27;20054;-74
2022/04/05 03:39:32;;;;;;;10.93;2.42;;;7.30;99.90;;;;;;5119282;27;20133;-74
2022/04/05 03:41:58;;;;;;;6.25;2.08;;;7.20;99.90;;;;;;5119620;27;20041;-74
2022/04/05 03:44:25;;;;;;;8.27;1.83;;;7.20;99.90;;;;;;5120121;27;20088;-74
2022/04/05 03:46:51;;;;;;;15.10;2.42;;;7.20;99.90;;;;;;5119630;27;20557;-74
2022/04/05 03:49:16;;;;;;;9.20;2.03;;;7.20;99.90;;;;;;5103161;27;20121;-74
2022/04/05 03:51:42;;;;;;;15.18;2.13;;;7.20;99.90;;;;;;5102846;27;20072;-74
2022/04/05 03:54:08;;;;;;;10.02;2.88;;;7.20;99.90;;;;;;5102852;27;20474;-74
2022/04/05 03:56:34;;;;;;;14.63;2.38;;;7.20;99.90;;;;;;5119588;27;20104;-74
2022/04/05 03:59:00;;;;;;;11.07;2.13;;;7.20;99.90;;;;;;5103271;27;20371;-74
2022/04/05 04:01:26;;;;;;;10.77;2.33;;;7.20;99.90;;;;;;5136123;27;20088;-74
2022/04/05 04:03:51;;;;;;;10.40;1.98;;;7.20;99.90;;;;;;5102189;27;20061;-74
2022/04/05 04:06:17;;;;;;;11.60;2.45;;;7.30;99.90;;;;;;5122985;27;20085;-75
2022/04/05 04:08:43;;;;;;;15.77;2.42;;;7.30;99.90;;;;;;5124207;27;20061;-74
2022/04/05 04:11:08;;;;;;;9.88;2.40;;;7.20;99.90;;;;;;5141624;27;20467;-74
2022/04/05 04:13:34;;;;;;;11.52;2.40;;;7.20;99.90;;;;;;5106362;27;20039;-75
2022/04/05 04:16:00;;;;;;;11.30;2.15;;;7.30;99.90;;;;;;5107152;27;20054;-74
2022/04/05 04:18:26;;;;;;;14.95;2.80;;;7.20;99.90;;;;;;5140415;27;20474;-75
2022/04/05 04:20:58;;;;;;;10.63;2.63;;;7.20;99.90;;;;;;5124351;27;20053;-75
2022/04/05 04:23:24;;;;;;;8.57;2.30;;;7.30;99.90;;;;;;5106233;27;20038;-74
2022/04/05 04:25:51;;;;;;;9.02;2.03;;;7.20;99.90;;;;;;5123460;27;20084;-74
2022/04/05 04:28:17;;;;;;;9.23;2.25;;;7.30;99.90;;;;;;5123533;27;20042;-75
2022/04/05 04:30:43;;;;;;;11.40;2.10;;;7.20;99.90;;;;;;5123172;27;20046;-74
2022/04/05 04:33:08;;;;;;;14.07;2.65;;;7.30;99.90;;;;;;5123034;27;20062;-74
2022/04/05 04:35:34;;;;;;;8.32;1.88;;;7.20;99.90;;;;;;5105718;27;20050;-74
2022/04/05 04:38:00;;;;;;;9.90;2.10;;;7.30;99.90;;;;;;5106230;27;20046;-74
2022/04/05 04:40:26;;;;;;;8.23;2.08;;;7.20;99.90;;;;;;5106233;27;20049;-74
2022/04/05 04:42:51;;;;;;;12.70;1.98;;;7.30;99.90;;;;;;5123013;27;20064;-73
2022/04/05 04:45:17;;;;;;;10.23;1.88;;;7.20;99.90;;;;;;5140020;27;20050;-73
2022/04/05 04:47:43;;;;;;;12.75;2.05;;;7.30;99.90;;;;;;5139905;27;20387;-73
2022/04/05 04:50:11;;;;;;;8.00;2.00;;;7.20;99.90;;;;;;5105904;27;20394;-73
2022/04/05 04:52:37;;;;;;;9.95;1.90;;;7.20;99.90;;;;;;5158184;27;20043;-73
2022/04/05 04:55:03;;;;;;;10.65;2.30;;;7.20;99.90;;;;;;5122767;27;20391;-74
2022/04/05 04:57:28;;;;;;;8.55;2.30;;;7.20;99.90;;;;;;5140168;27;20047;-73
2022/04/05 04:59:55;;;;;;;9.77;2.20;;;7.20;99.90;;;;;;5139621;27;20047;-73
2022/04/05 05:02:22;;;;;;;9.13;2.00;;;7.10;99.90;;;;;;5105467;27;20130;-74
2022/04/05 05:04:51;;;;;;;9.75;2.45;;;7.10;99.90;;;;;;5106245;27;20183;-73
2022/04/05 05:07:17;;;;;;;8.13;2.25;;;7.10;99.90;;;;;;5105474;27;20110;-74
2022/04/05 05:09:43;;;;;;;7.95;2.40;;;7.10;99.90;;;;;;5139228;27;20051;-73
2022/04/05 05:12:11;;;;;;;10.73;2.42;;;7.10;99.90;;;;;;5158234;27;20123;-74
2022/04/05 05:14:40;;;;;;;8.80;2.15;;;7.10;99.90;;;;;;5105340;27;20070;-74
2022/04/05 05:17:06;;;;;;;7.85;2.15;;;7.10;99.90;;;;;;5122322;27;20296;-73
2022/04/05 05:19:32;;;;;;;9.73;2.33;;;7.20;99.90;;;;;;5089088;27;20498;-74
2022/04/05 05:21:59;;;;;;;10.30;2.13;;;7.20;99.90;;;;;;5121950;27;20084;-73
2022/04/05 05:24:25;;;;;;;11.27;2.13;;;7.10;99.90;;;;;;5105360;27;20050;-73
2022/04/05 05:26:50;;;;;;;8.65;2.20;;;7.10;99.90;;;;;;5105805;27;20042;-74
2022/04/05 05:29:16;;;;;;;5.97;2.08;;;7.20;99.90;;;;;;5137967;27;20111;-74
2022/04/05 05:31:44;;;;;;;7.55;2.33;;;7.10;99.90;;;;;;5104613;27;20062;-74
2022/04/05 05:34:10;;;;;;;6.88;2.00;;;7.10;99.90;;;;;;5105680;27;20464;-74
2022/04/05 05:36:43;;;;;;;11.55;2.30;;;7.10;99.90;;;;;;5105383;27;20111;-74
2022/04/05 05:39:11;;;;;;;4.03;1.73;;;7.20;99.90;;;;;;5140471;27;20074;-73
2022/04/05 05:41:38;;;;;;;8.05;1.90;;;7.10;99.90;;;;;;5121822;27;20054;-74
2022/04/05 05:44:11;;;;;;;6.55;2.03;;;7.20;99.90;;;;;;5123791;27;20126;-74
2022/04/05 05:46:42;;;;;;;11.38;1.95;;;7.10;99.90;;;;;;5107351;27;20053;-76
2022/04/05 05:49:08;;;;;;;11.35;2.63;;;7.20;99.90;;;;;;5104789;27;20039;-74
2022/04/05 05:51:34;;;;;;;8.52;1.65;;;7.20;99.90;;;;;;5104594;27;20514;-74
2022/04/05 05:53:59;;;;;;;8.90;2.00;;;7.20;99.90;;;;;;5087872;27;20383;-74
2022/04/05 05:56:25;;;;;;;6.80;1.90;;;7.20;99.90;;;;;;5104457;27;20150;-73
2022/04/05 05:58:51;;;;;;;11.30;2.33;;;7.20;99.90;;;;;;5104855;27;20039;-73
2022/04/05 06:01:17;;;;;;;8.68;2.00;;;7.20;99.90;;;;;;5121607;27;20178;-74
2022/04/05 06:03:46;;;;;;;8.80;2.10;;;7.20;99.90;;;;;;5121796;27;20043;-74
2022/04/05 06:06:12;;;;;;;9.10;1.70;;;7.30;99.90;;;;;;5087848;27;20135;-74
2022/04/05 06:08:41;;;;;;;6.97;1.77;;;7.20;99.90;;;;;;5105600;27;20064;-73
2022/04/05 06:11:07;;;;;;;6.53;1.90;;;7.30;99.90;;;;;;5105186;27;20146;-74
2022/04/05 06:13:34;;;;;;;7.88;1.80;;;7.30;99.90;;;;;;5104258;27;20081;-79
2022/04/05 06:16:00;;;;;;;6.15;1.58;;;7.30;99.90;;;;;;5121875;27;20043;-73
2022/04/05 06:18:25;;;;;;;7.43;1.65;;;7.30;99.90;;;;;;5087186;27;20048;-73
2022/04/05 06:20:51;;;;;;;5.35;1.90;;;7.30;99.90;;;;;;5104075;27;20050;-73
2022/04/05 06:23:17;;;;;;;7.95;1.67;;;7.40;99.90;;;;;;5120920;27;20364;-75
2022/04/05 06:25:44;;;;;;;9.38;2.10;;;7.30;99.90;;;;;;5120922;27;20039;-74
2022/04/05 06:28:10;;;;;;;5.75;1.65;;;7.40;99.90;;;;;;5103902;27;20097;-73
2022/04/05 06:30:37;;;;;;;7.90;1.60;;;7.40;99.90;;;;;;5104626;27;20226;-75
2022/04/05 06:33:30;;;;;;;7.47;1.58;;;7.40;99.90;;;;;;5104143;27;20467;-74
2022/04/05 06:35:59;;;;;;;8.85;1.65;;;7.50;99.90;;;;;;5121876;27;20050;-73
2022/04/05 06:38:26;;;;;;;5.93;1.63;;;7.40;99.90;;;;;;5087052;27;20398;-74
2022/04/05 06:40:54;;;;;;;8.82;1.77;;;7.50;99.90;;;;;;5102857;27;20047;-73
2022/04/05 06:43:31;;;;;;;8.02;1.85;;;7.50;99.90;;;;;;5106087;27;20035;-74
2022/04/05 06:45:57;;;;;;;10.50;2.25;;;7.60;99.90;;;;;;5103643;27;20139;-74
2022/04/05 06:48:23;;;;;;;8.43;1.70;;;7.50;99.90;;;;;;5119494;27;20050;-74
2022/04/05 06:50:50;;;;;;;8.48;1.75;;;7.60;99.90;;;;;;5103669;27;20034;-74
2022/04/05 06:53:16;;;;;;;6.90;1.88;;;7.60;99.90;;;;;;5087499;27;20051;-74
2022/04/05 06:55:42;;;;;;;8.70;1.88;;;7.60;99.90;;;;;;5085807;27;20497;-74
2022/04/05 06:58:14;;;;;;;8.10;1.92;;;7.70;99.90;;;;;;5121154;27;20051;-74
2022/04/05 07:00:40;;;;;;;6.00;2.00;;;7.80;99.90;;;;;;5104181;27;20053;-77
2022/04/05 07:03:07;;;;;;;6.05;1.83;;;7.80;99.90;;;;;;5138052;27;20065;-74
2022/04/05 07:05:33;;;;;;;5.75;1.60;;;7.90;99.90;;;;;;5104042;27;20086;-74
2022/04/05 07:07:59;;;;;;;7.65;2.10;;;7.90;99.90;;;;;;5103876;27;20050;-73
2022/04/05 07:10:25;;;;;;;6.35;1.63;;;8.00;99.90;;;;;;5102822;27;20081;-73
2022/04/05 07:12:51;;;;;;;6.40;1.98;;;8.00;99.90;;;;;;5121005;27;20047;-74
2022/04/05 07:15:18;;;;;;;7.18;2.10;;;8.00;99.90;;;;;;5102383;27;20403;-73
2022/04/05 07:17:44;;;;;;;5.65;1.85;;;8.00;99.90;;;;;;5120704;27;20051;-75
2022/04/05 07:20:10;;;;;;;6.70;1.73;;;8.00;99.90;;;;;;5119995;27;20404;-74
2022/04/05 07:22:49;;;;;;;6.47;1.90;;;8.00;99.90;;;;;;5085962;27;20042;-74
2022/04/05 07:25:19;;;;;;;6.55;1.60;;;8.00;99.90;;;;;;5104463;27;20423;-74
2022/04/05 07:27:45;;;;;;;4.07;1.52;;;8.00;99.90;;;;;;5104264;27;20043;-74
2022/04/05 07:30:11;;;;;;;7.07;1.40;;;8.10;99.90;;;;;;5103221;27;20066;-73
2022/04/05 07:32:42;;;;;;;7.72;1.60;;;8.10;99.90;;;;;;5119912;27;20049;-74
2022/04/05 07:35:15;;;;;;;6.85;1.63;;;8.20;99.90;;;;;;5089956;27;20394;-74
2022/04/05 07:37:42;;;;;;;6.40;1.60;;;8.10;99.90;;;;;;5103422;27;20099;-73
2022/04/05 07:40:10;;;;;;;6.95;1.83;;;8.10;99.90;;;;;;5118473;27;20072;-74
2022/04/05 07:42:38;;;;;;;5.70;1.25;;;8.10;99.90;;;;;;5103454;27;20117;-74
2022/04/05 07:45:06;;;;;;;5.90;1.50;;;8.20;99.90;;;;;;5136841;27;20085;-74
2022/04/05 07:47:32;;;;;;;6.28;1.60;;;8.10;99.90;;;;;;5118992;27;20053;-74
2022/04/05 07:49:58;;;;;;;5.00;1.42;;;8.20;99.90;;;;;;5102920;27;20175;-74
2022/04/05 07:52:23;;;;;;;5.57;1.50;;;8.10;99.90;;;;;;5103026;27;20125;-73
2022/04/05 07:54:50;;;;;;;6.75;1.67;;;8.10;99.90;;;;;;5118297;27;20054;-74
2022/04/05 07:57:17;;;;;;;5.78;1.70;;;8.10;99.90;;;;;;5102597;27;20504;-74
2022/04/05 07:59:48;;;;;;;6.47;1.58;;;8.20;99.90;;;;;;5105196;27;20049;-74
2022/04/05 08:02:14;;;;;;;6.22;1.80;;;8.20;99.90;;;;;;5119181;27;20126;-74
2022/04/05 08:04:40;;;;;;;7.85;1.67;;;8.20;99.90;;;;;;5102612;27;20133;-74
2022/04/05 08:07:06;;;;;;;7.03;1.80;;;8.20;99.90;;;;;;5119557;27;20069;-74
2022/04/05 08:09:38;;;;;;;7.82;1.48;;;8.20;99.90;;;;;;5102175;27;20051;-73
2022/04/05 08:12:05;;;;;;;5.63;1.27;;;8.30;99.90;;;;;;5120856;27;20103;-73
2022/04/05 08:14:31;;;;;;;6.93;1.35;;;8.40;99.90;;;;;;5136507;27;20099;-75
2022/04/05 08:16:57;;;;;;;5.40;1.60;;;8.40;99.90;;;;;;5119755;27;20042;-74
2022/04/05 08:19:30;;;;;;;6.22;1.33;;;8.50;99.90;;;;;;5104844;27;20138;-74
2022/04/05 08:21:57;;;;;;;5.57;1.60;;;8.50;99.90;;;;;;5102338;27;20055;-74
2022/04/05 08:24:23;;;;;;;4.38;1.40;;;8.50;99.90;;;;;;5102273;27;20134;-74
2022/04/05 08:26:50;;;;;;;6.15;1.30;;;8.60;99.90;;;;;;5119352;27;20049;-74
2022/04/05 08:29:15;;;;;;;4.47;1.45;;;8.60;99.90;;;;;;5119321;27;20190;-74
2022/04/05 08:31:41;;;;;;;5.95;1.30;;;8.60;99.90;;;;;;5102234;27;20046;-74
2022/04/05 08:34:07;;;;;;;5.38;1.45;;;8.60;99.90;;;;;;5102727;27;20062;-73
2022/04/05 08:36:32;;;;;;;5.72;1.88;;;8.70;99.90;;;;;;5118994;27;20049;-73
2022/04/05 08:38:58;;;;;;;6.32;1.58;;;8.80;99.90;;;;;;5084937;27;20075;-73
2022/04/05 08:41:26;;;;;;;4.13;1.30;;;8.80;99.90;;;;;;5102453;27;20081;-73
2022/04/05 08:43:52;;;;;;;5.35;1.13;;;8.80;99.90;;;;;;5102160;27;20103;-74
2022/04/05 08:46:19;;;;;;;3.35;1.00;;;8.90;99.90;;;;;;5085330;27;20059;-73
2022/04/05 08:48:46;;;;;;;6.18;1.27;;;9.00;99.90;;;;;;5102425;27;20054;-73
2022/04/05 08:51:12;;;;;;;3.90;0.88;;;9.10;99.90;;;;;;5087237;27;20402;-74
2022/04/05 08:53:38;;;;;;;5.88;0.93;;;9.20;99.90;;;;;;5139736;27;20038;-74
2022/04/05 08:56:05;;;;;;;7.10;1.35;;;9.20;99.90;;;;;;5105514;27;20058;-74
2022/04/05 08:58:30;;;;;;;3.25;0.95;;;9.30;99.90;;;;;;5105363;27;20152;-73
2022/04/05 09:00:56;;;;;;;5.72;0.95;;;9.40;99.90;;;;;;5122751;27;20119;-74
2022/04/05 09:03:22;;;;;;;4.53;0.95;;;9.40;99.90;;;;;;5105518;27;20446;-73
2022/04/05 09:05:48;;;;;;;4.93;0.98;;;9.30;99.90;;;;;;5122578;27;20449;-74
2022/04/05 09:08:18;;;;;;;5.07;1.30;;;9.30;99.90;;;;;;5088483;27;20042;-73
2022/04/05 09:10:52;;;;;;;4.55;1.30;;;9.30;99.90;;;;;;5122894;27;20126;-73
2022/04/05 09:13:20;;;;;;;3.85;1.30;;;9.20;99.90;;;;;;5105388;27;20398;-73
2022/04/05 09:15:51;;;;;;;3.58;1.20;;;9.20;99.90;;;;;;5088378;27;20050;-73
2022/04/05 09:18:36;;;;;;;4.07;1.15;;;9.20;99.90;;;;;;5105685;27;20046;-74
2022/04/05 09:21:02;;;;;;;3.53;1.50;;;9.10;99.90;;;;;;5089778;27;20046;-73
2022/04/05 09:23:31;;;;;;;2.85;1.17;;;9.10;99.90;;;;;;5105221;27;20051;-74
2022/04/05 09:26:04;;;;;;;3.40;1.10;;;9.10;99.90;;;;;;5105102;27;20046;-75
2022/04/05 09:28:38;;;;;;;3.40;1.10;;;9.10;99.90;;;;;;5088866;27;20082;-72
2022/04/05 09:31:08;;;;;;;3.40;1.13;;;9.20;99.90;;;;;;5088991;27;20046;-73
2022/04/05 09:33:36;;;;;;;3.22;1.08;;;9.20;99.90;;;;;;5122288;27;20478;-73
2022/04/05 09:36:11;;;;;;;3.45;1.10;;;9.20;99.90;;;;;;5138928;27;20047;-73
2022/04/05 09:38:37;;;;;;;3.65;1.13;;;9.30;99.90;;;;;;5139182;27;20054;-73
2022/04/05 09:41:29;;;;;;;4.00;1.00;;;9.30;99.90;;;;;;5088157;27;20050;-73
2022/04/05 09:44:00;;;;;;;3.28;0.98;;;9.30;99.90;;;;;;5136655;27;20123;-72
2022/04/05 09:46:28;;;;;;;3.75;1.00;;;9.30;99.90;;;;;;5104821;27;20125;-72
2022/04/05 09:49:11;;;;;;;2.83;1.10;;;9.30;99.90;;;;;;5121985;27;20398;-72
2022/04/05 09:51:44;;;;;;;1.73;0.90;;;9.40;99.90;;;;;;5104613;27;20505;-73
2022/04/05 09:54:27;;;;;;;2.47;0.93;;;9.30;99.90;;;;;;5087763;27;20486;-73
2022/04/05 09:57:01;;;;;;;1.80;0.90;;;9.30;99.90;;;;;;5123340;27;20077;-73
2022/04/05 09:59:44;;;;;;;2.15;1.00;;;9.30;99.90;;;;;;5104142;27;20055;-74
2022/04/05 10:02:10;;;;;;;2.00;0.75;;;9.30;99.90;;;;;;5088245;27;20091;-73
2022/04/05 10:04:36;;;;;;;1.88;0.90;;;9.40;99.90;;;;;;5103791;27;20058;-73
2022/04/05 10:07:02;;;;;;;2.25;1.10;;;9.40;99.90;;;;;;5087467;27;20042;-76
2022/04/05 10:09:29;;;;;;;1.10;0.90;;;9.50;99.90;;;;;;5105226;27;20074;-73
2022/04/05 10:11:59;;;;;;;2.60;1.00;;;9.60;99.90;;;;;;5087526;27;20050;-73
2022/04/05 10:14:26;;;;;;;2.27;0.90;;;9.60;99.90;;;;;;5104807;27;20051;-73
2022/04/05 10:16:52;;;;;;;2.47;1.10;;;9.60;99.90;;;;;;5088015;27;20051;-73
2022/04/05 10:19:17;;;;;;;2.45;0.88;;;9.70;99.90;;;;;;5121134;27;20042;-73
2022/04/05 10:21:44;;;;;;;1.70;1.00;;;9.70;99.90;;;;;;5087344;27;20507;-73
2022/04/05 10:24:10;;;;;;;2.35;1.05;;;9.80;99.90;;;;;;5120847;27;20046;-73
2022/04/05 10:26:41;;;;;;;1.30;0.90;;;9.80;99.90;;;;;;5121163;27;20133;-73
2022/04/05 10:29:15;;;;;;;1.00;0.73;;;9.80;99.90;;;;;;5104640;27;20050;-73
2022/04/05 10:32:04;;;;;;;1.15;0.90;;;9.80;99.90;;;;;;5121032;27;20057;-73
2022/04/05 10:34:54;;;;;;;0.90;0.90;;;9.90;99.90;;;;;;5121315;27;20050;-72
2022/04/05 10:37:30;;;;;;;1.20;0.85;;;9.90;99.90;;;;;;5103631;27;20095;-73
2022/04/05 10:39:58;;;;;;;1.40;0.90;;;10.00;99.90;;;;;;5104363;27;20042;-73
2022/04/05 10:42:41;;;;;;;3.25;1.00;;;10.00;99.90;;;;;;5137760;27;20039;-73
2022/04/05 10:45:25;;;;;;;1.25;0.80;;;10.10;99.90;;;;;;5120422;27;20074;-74
2022/04/05 10:48:13;;;;;;;1.38;0.90;;;10.10;99.90;;;;;;5104386;27;20047;-73
2022/04/05 10:51:01;;;;;;;1.10;1.00;;;10.20;99.90;;;;;;5123471;27;20055;-73
2022/04/05 10:53:33;;;;;;;0.90;0.90;;;10.20;99.90;;;;;;5124909;27;20129;-73
2022/04/05 10:56:25;;;;;;;1.10;1.00;;;10.20;99.90;;;;;;5138468;27;20046;-73
2022/04/05 10:59:05;;;;;;;2.38;1.05;;;10.20;99.90;;;;;;5105139;27;20110;-73
2022/04/05 11:01:43;;;;;;;1.40;1.30;;;10.30;99.90;;;;;;5119539;27;20384;-73
2022/04/05 11:04:12;;;;;;;2.40;1.23;;;10.40;99.90;;;;;;5104094;27;20043;-73
2022/04/05 11:07:02;;;;;;;1.30;1.20;;;10.60;99.90;;;;;;5121126;27;20125;-73
2022/04/05 11:09:35;;;;;;;1.25;1.05;;;10.70;99.90;;;;;;5120108;27;20094;-73
2022/04/05 11:12:02;;;;;;;1.30;1.20;;;10.80;99.90;;;;;;5104425;27;20051;-73
2022/04/05 11:14:45;;;;;;;1.30;1.20;;;10.80;99.90;;;;;;5102897;27;20046;-73
2022/04/05 11:17:13;;;;;;;1.30;1.20;;;10.90;99.90;;;;;;5103499;27;20053;-76
2022/04/05 11:19:40;;;;;;;1.30;1.20;;;10.90;99.90;;;;;;5103559;27;20053;-73
2022/04/05 11:22:21;;;;;;;1.50;1.40;;;11.00;99.90;;;;;;5085833;27;20119;-74
2022/04/05 11:25:04;;;;;;;1.42;1.33;;;11.10;99.90;;;;;;5137008;27;20073;-73
2022/04/05 11:27:31;;;;;;;1.50;1.40;;;11.10;99.90;;;;;;5088099;27;20497;-73
2022/04/05 11:30:28;;;;;;;1.77;1.67;;;11.10;99.90;;;;;;5103037;27;20501;-73
2022/04/05 11:33:09;;;;;;;1.38;1.27;;;11.10;99.90;;;;;;5136796;27;20047;-73
2022/04/05 11:35:37;;;;;;;1.40;1.30;;;11.20;99.90;;;;;;5137020;27;20047;-73
2022/04/05 11:38:04;;;;;;;1.85;1.70;;;11.20;99.90;;;;;;5086640;27;20047;-74
2022/04/05 11:40:30;;;;;;;2.28;1.90;;;11.30;99.90;;;;;;5102150;27;20395;-73
2022/04/05 11:42:58;;;;;;;1.80;1.70;;;11.30;99.90;;;;;;5103602;27;20104;-74
2022/04/05 11:45:25;;;;;;;1.80;1.70;;;11.40;99.90;;;;;;5103541;27;20042;-74
2022/04/05 11:47:56;;;;;;;1.67;1.50;;;11.40;99.90;;;;;;5085855;27;20046;-73
2022/04/05 11:50:22;;;;;;;;;;;11.40;99.90;;;;;;5103431;27;20198;-73
2022/04/05 11:52:49;;;;;;;2.72;1.80;;;11.50;99.90;;;;;;5120031;27;19927;-74
2022/04/05 11:58:25;;;;;;;1.92;1.83;;;11.50;99.90;;;;;;5123072;27;20046;-74
2022/04/05 12:00:51;;;;;;;2.03;1.92;;;11.50;99.90;;;;;;5103444;27;20055;-74
2022/04/05 12:03:19;;;;;;;2.00;1.90;;;11.50;99.90;;;;;;5102512;27;20035;-77
2022/04/05 12:05:46;;;;;;;2.15;1.98;;;11.60;99.90;;;;;;5119631;27;20049;-74
2022/04/05 12:08:15;;;;;;;2.50;2.30;;;11.60;99.90;;;;;;5119509;27;20061;-74
2022/04/05 12:10:42;;;;;;;2.50;2.30;;;11.50;99.90;;;;;;5102538;27;20054;-74
2022/04/05 12:13:09;;;;;;;2.95;2.70;;;11.50;99.90;;;;;;5085724;27;20043;-74
2022/04/05 12:15:36;;;;;;;3.72;3.30;;;11.40;99.90;;;;;;5085963;27;20042;-74
2022/04/05 12:18:20;;;;;;;3.65;3.15;;;11.30;99.90;;;;;;5102216;27;20051;-74
2022/04/05 12:21:05;;;;;;;3.50;3.20;;;11.20;99.90;;;;;;5086167;27;20049;-73
2022/04/05 12:23:40;;;;;;;3.95;3.20;;;11.20;99.90;;;;;;5103947;27;20115;-74
2022/04/05 12:26:15;;;;;;;3.70;3.40;;;11.10;99.90;;;;;;5087263;27;20053;-74
2022/04/05 12:28:55;;;;;;;4.03;3.63;;;11.10;99.90;;;;;;5123382;27;20038;-73
2022/04/05 12:31:30;;;;;;;4.00;3.70;;;11.10;99.90;;;;;;5091711;27;20129;-74
2022/04/05 12:34:05;;;;;;;5.30;4.23;;;11.20;99.90;;;;;;5090213;27;20078;-73
2022/04/05 12:36:41;;;;;;;5.50;3.70;;;11.20;99.90;;;;;;5126446;27;20054;-73
2022/04/05 12:39:27;;;;;;;3.83;3.42;;;11.30;99.90;;;;;;5123011;27;20050;-74
2022/04/05 12:42:03;;;;;;;6.53;3.95;;;11.40;99.90;;;;;;5124656;27;20073;-73
2022/04/05 12:44:30;;;;;;;3.95;3.63;;;11.40;99.90;;;;;;5090208;27;20497;-74
2022/04/05 12:46:59;;;;;;;5.65;4.20;;;11.40;99.90;;;;;;5107271;27;20049;-74
2022/04/05 12:49:38;;;;;;;6.22;4.22;;;11.40;99.90;;;;;;5125062;27;20130;-74
2022/04/05 12:52:32;;;;;;;7.70;4.50;;;11.30;99.90;;;;;;5123614;27;20054;-74
2022/04/05 12:54:58;;;;;;;4.90;3.97;;;11.20;99.90;;;;;;5140353;27;20046;-73
2022/04/05 12:57:29;;;;;;;7.78;4.45;;;11.10;99.90;;;;;;5140597;27;20371;-73
2022/04/05 13:00:22;;;;;;;9.27;4.47;;;11.00;99.90;;;;;;5106049;27;20047;-73
2022/04/05 13:03:00;;;;;;;5.57;4.50;;;11.00;99.90;;;;;;5092934;27;20501;-73
2022/04/05 13:08:30;;;;;;;6.40;4.15;;;10.80;99.90;;;;;;5111703;27;20440;-73